Time;durP1;ratioP1;P1;durP2;ratioP2;P2;SDS_P1;SDS_P2;PMS_P1;PMS_P2;Temp;Humidity;BMP_temperature;BMP_pressure;BME280_temperature;BME280_humidity;BME280_pressure;Samples;Min_cycle;Max_cycle;Signal;HPM_P1;HPM_P2
2023/06/03 00:00:04;;;;;;;0.10;0.10;;;18.60;99.90;;;;;;5012166;28;20049;-86
2023/06/03 00:02:30;;;;;;;0.10;0.10;;;18.40;99.90;;;;;;5013751;28;20080;-85
2023/06/03 00:04:56;;;;;;;0.20;0.20;;;18.60;99.90;;;;;;5013656;28;20033;-86
2023/06/03 00:07:22;;;;;;;0.00;0.00;;;18.60;99.90;;;;;;5013900;28;20101;-86
2023/06/03 00:09:48;;;;;;;0.10;0.10;;;18.60;99.90;;;;;;5013322;28;20030;-86
2023/06/03 00:12:13;;;;;;;0.25;0.25;;;18.70;99.90;;;;;;5013767;28;20026;-86
2023/06/03 00:14:39;;;;;;;0.10;0.10;;;18.60;99.90;;;;;;5012241;28;20087;-86
2023/06/03 00:17:04;;;;;;;0.10;0.10;;;18.50;99.90;;;;;;5013918;28;20394;-86
2023/06/03 00:19:30;;;;;;;0.00;0.00;;;18.50;99.90;;;;;;5013402;28;20041;-86
2023/06/03 00:21:56;;;;;;;0.10;0.10;;;18.40;99.90;;;;;;5013534;28;20037;-86
2023/06/03 00:24:24;;;;;;;0.13;0.13;;;18.30;99.90;;;;;;5012835;28;20029;-86
2023/06/03 00:26:51;;;;;;;0.03;0.03;;;18.10;99.90;;;;;;5012051;28;20026;-86
2023/06/03 00:29:16;;;;;;;0.00;0.00;;;18.20;99.90;;;;;;5013669;28;20386;-86
2023/06/03 00:31:42;;;;;;;0.10;0.10;;;18.30;99.90;;;;;;5013292;28;20030;-86
2023/06/03 00:34:08;;;;;;;0.00;0.00;;;18.30;99.90;;;;;;5013168;28;20026;-86
2023/06/03 00:36:33;;;;;;;0.10;0.10;;;18.10;99.90;;;;;;5013154;28;20113;-86
2023/06/03 00:38:59;;;;;;;0.20;0.20;;;18.10;99.90;;;;;;5012606;28;20018;-86
2023/06/03 00:41:25;;;;;;;0.00;0.00;;;18.20;99.90;;;;;;5015415;28;20035;-86
2023/06/03 00:43:51;;;;;;;0.00;0.00;;;18.30;99.90;;;;;;5032815;28;20096;-86
2023/06/03 00:46:19;;;;;;;0.13;0.13;;;18.30;99.90;;;;;;5032646;28;20453;-86
2023/06/03 00:48:44;;;;;;;0.03;0.03;;;18.20;99.90;;;;;;5031531;28;20028;-86
2023/06/03 00:51:11;;;;;;;0.10;0.10;;;18.30;99.90;;;;;;5015912;28;20022;-86
2023/06/03 00:53:36;;;;;;;0.00;0.00;;;18.40;99.90;;;;;;5011500;28;20034;-86
2023/06/03 00:56:02;;;;;;;0.10;0.10;;;18.30;99.90;;;;;;5012892;28;20032;-86
2023/06/03 00:58:28;;;;;;;0.00;0.00;;;18.20;99.90;;;;;;5014095;28;20030;-86
2023/06/03 01:00:55;;;;;;;0.22;0.22;;;18.20;99.90;;;;;;5032871;28;20492;-86
2023/06/03 01:03:21;;;;;;;0.10;0.10;;;18.00;99.90;;;;;;5032711;28;20017;-86
2023/06/03 01:06:15;;;;;;;0.00;0.00;;;18.10;99.90;;;;;;5014886;28;20436;-86
2023/06/03 01:09:03;;;;;;;0.20;0.20;;;18.00;99.90;;;;;;5031618;28;20049;-86
2023/06/03 01:11:47;;;;;;;0.00;0.00;;;18.00;99.90;;;;;;5015212;28;20487;-86
2023/06/03 01:14:22;;;;;;;0.00;0.00;;;17.90;99.90;;;;;;5032692;28;20022;-86
2023/06/03 01:16:50;;;;;;;0.00;0.00;;;17.90;99.90;;;;;;5032562;28;20045;-86
2023/06/03 01:19:38;;;;;;;0.00;0.00;;;17.90;99.90;;;;;;5014331;28;20171;-86
2023/06/03 01:22:06;;;;;;;0.10;0.10;;;18.00;99.90;;;;;;5014239;28;20040;-86
2023/06/03 01:24:34;;;;;;;0.30;0.13;;;17.90;99.90;;;;;;5031770;28;20033;-86
2023/06/03 01:27:00;;;;;;;0.28;0.20;;;17.90;99.90;;;;;;5032386;28;20367;-86
2023/06/03 01:29:26;;;;;;;0.10;0.10;;;17.90;99.90;;;;;;5032436;28;20026;-87
2023/06/03 01:31:58;;;;;;;0.43;0.22;;;17.80;99.90;;;;;;5032706;28;20037;-86
2023/06/03 01:34:24;;;;;;;2.20;0.75;;;17.80;99.90;;;;;;5032196;28;20033;-86
2023/06/03 01:36:50;;;;;;;0.10;0.10;;;17.80;99.90;;;;;;5031784;28;20394;-86
2023/06/03 01:39:16;;;;;;;0.00;0.00;;;17.80;99.90;;;;;;5032138;28;20063;-86
2023/06/03 01:41:44;;;;;;;0.10;0.10;;;17.90;99.90;;;;;;5020540;28;20048;-86
2023/06/03 01:44:10;;;;;;;0.20;0.20;;;17.90;99.90;;;;;;5052276;28;20021;-86
2023/06/03 01:46:35;;;;;;;0.00;0.00;;;17.90;99.90;;;;;;5052179;28;20032;-86
2023/06/03 01:49:08;;;;;;;0.32;0.20;;;17.80;99.90;;;;;;5051986;28;20477;-86
2023/06/03 01:51:33;;;;;;;0.10;0.10;;;17.60;99.90;;;;;;5053801;28;20129;-86
2023/06/03 01:53:59;;;;;;;0.10;0.10;;;17.60;99.90;;;;;;5055666;28;20063;-86
2023/06/03 01:56:25;;;;;;;0.95;0.60;;;17.50;99.90;;;;;;5056381;28;20378;-86
2023/06/03 01:58:51;;;;;;;0.10;0.10;;;17.40;99.90;;;;;;5055611;28;20090;-86
2023/06/03 02:01:17;;;;;;;0.10;0.10;;;17.40;99.90;;;;;;5037777;28;20037;-86
2023/06/03 02:03:42;;;;;;;0.10;0.10;;;17.50;99.90;;;;;;5055858;28;20044;-86
2023/06/03 02:06:08;;;;;;;0.10;0.10;;;17.60;99.90;;;;;;5055187;28;20420;-86
2023/06/03 02:08:36;;;;;;;0.30;0.30;;;17.60;99.90;;;;;;5055462;28;20025;-86
2023/06/03 02:11:02;;;;;;;0.00;0.00;;;17.60;99.90;;;;;;5055964;28;20078;-86
2023/06/03 02:13:27;;;;;;;0.10;0.10;;;17.60;99.90;;;;;;5037678;28;20431;-86
2023/06/03 02:15:53;;;;;;;0.00;0.00;;;17.50;99.90;;;;;;5055664;28;20029;-86
2023/06/03 02:18:18;;;;;;;0.45;0.40;;;17.40;99.90;;;;;;5037483;28;20405;-86
2023/06/03 02:20:45;;;;;;;0.00;0.00;;;17.30;99.90;;;;;;5055403;28;20044;-86
2023/06/03 02:23:11;;;;;;;0.10;0.10;;;17.20;99.90;;;;;;5055343;28;20025;-86
2023/06/03 02:25:36;;;;;;;0.22;0.22;;;17.20;99.90;;;;;;5037653;28;20120;-86
2023/06/03 02:28:06;;;;;;;0.08;0.08;;;17.30;99.90;;;;;;5055180;28;20090;-87
2023/06/03 02:30:31;;;;;;;0.10;0.10;;;17.30;99.90;;;;;;5037283;28;20033;-86
2023/06/03 02:32:57;;;;;;;0.30;0.30;;;17.30;99.90;;;;;;5055345;28;20096;-86
2023/06/03 02:35:23;;;;;;;0.00;0.00;;;17.30;99.90;;;;;;5054589;28;20033;-86
2023/06/03 02:37:48;;;;;;;0.00;0.00;;;17.40;99.90;;;;;;5037142;28;20029;-86
2023/06/03 02:40:14;;;;;;;0.30;0.17;;;17.50;99.90;;;;;;5037007;28;20044;-86
2023/06/03 02:42:40;;;;;;;0.65;0.30;;;17.40;99.90;;;;;;5055207;28;20485;-86
2023/06/03 02:45:06;;;;;;;0.00;0.00;;;17.40;99.90;;;;;;5054901;28;20039;-86
2023/06/03 02:47:32;;;;;;;0.10;0.10;;;17.20;99.90;;;;;;5037157;28;20028;-86
2023/06/03 02:49:58;;;;;;;0.00;0.00;;;17.20;99.90;;;;;;5029711;28;20029;-86
2023/06/03 02:52:23;;;;;;;0.35;0.35;;;17.30;99.90;;;;;;5034969;28;20029;-85
2023/06/03 02:54:49;;;;;;;0.10;0.10;;;17.10;99.90;;;;;;5017083;28;20029;-86
2023/06/03 02:57:15;;;;;;;0.15;0.15;;;17.00;99.90;;;;;;5017201;28;20435;-86
2023/06/03 02:59:42;;;;;;;0.00;0.00;;;17.10;99.90;;;;;;5034599;28;20126;-85
2023/06/03 03:02:08;;;;;;;0.00;0.00;;;17.10;99.90;;;;;;5016558;28;20492;-86
2023/06/03 03:04:36;;;;;;;0.10;0.10;;;17.10;99.90;;;;;;5034147;28;20026;-86
2023/06/03 03:07:08;;;;;;;0.10;0.10;;;17.20;99.90;;;;;;5016840;28;20029;-86
2023/06/03 03:09:34;;;;;;;0.08;0.08;;;17.20;99.90;;;;;;5034622;28;20025;-86
2023/06/03 03:12:00;;;;;;;0.10;0.10;;;17.10;99.90;;;;;;5034539;28;20025;-86
2023/06/03 03:14:26;;;;;;;0.10;0.10;;;17.00;99.90;;;;;;5034507;28;20033;-86
2023/06/03 03:16:52;;;;;;;0.10;0.10;;;17.00;99.90;;;;;;5034510;28;20025;-87
2023/06/03 03:19:18;;;;;;;0.00;0.00;;;17.00;99.90;;;;;;5034330;28;20037;-86
2023/06/03 03:21:44;;;;;;;0.25;0.25;;;16.90;99.90;;;;;;5016579;28;20513;-86
2023/06/03 03:24:10;;;;;;;0.10;0.10;;;17.00;99.90;;;;;;5034014;28;20378;-86
2023/06/03 03:26:36;;;;;;;0.35;0.35;;;17.00;99.90;;;;;;5016536;28;20489;-86
2023/06/03 03:29:02;;;;;;;0.15;0.10;;;17.10;99.90;;;;;;5034229;28;20068;-86
2023/06/03 03:31:28;;;;;;;0.10;0.10;;;17.10;99.90;;;;;;5034446;28;20029;-86
2023/06/03 03:33:54;;;;;;;0.00;0.00;;;17.00;99.90;;;;;;5033836;28;20021;-86
2023/06/03 03:36:22;;;;;;;0.05;0.05;;;16.90;99.90;;;;;;5016330;28;20021;-86
2023/06/03 03:39:01;;;;;;;0.32;0.10;;;16.90;99.90;;;;;;5016332;28;20071;-86
2023/06/03 03:41:26;;;;;;;0.03;0.03;;;16.90;99.90;;;;;;5037826;28;20386;-86
2023/06/03 03:43:52;;;;;;;0.20;0.20;;;17.00;99.90;;;;;;5035845;28;20075;-86
2023/06/03 03:46:18;;;;;;;0.00;0.00;;;16.90;99.90;;;;;;5035515;28;20040;-86
2023/06/03 03:48:45;;;;;;;0.10;0.10;;;16.90;99.90;;;;;;5053647;28;20107;-86
2023/06/03 03:51:12;;;;;;;0.28;0.28;;;16.70;99.90;;;;;;5036836;28;20029;-85
2023/06/03 03:53:43;;;;;;;0.10;0.10;;;16.70;99.90;;;;;;5033705;28;20036;-87
2023/06/03 03:56:08;;;;;;;0.20;0.20;;;16.80;99.90;;;;;;5015871;28;20037;-86
2023/06/03 03:58:37;;;;;;;0.22;0.20;;;16.60;99.90;;;;;;5033485;28;20025;-86
2023/06/03 04:01:23;;;;;;;0.30;0.30;;;16.40;99.90;;;;;;5032999;28;20048;-86
2023/06/03 04:03:54;;;;;;;0.10;0.10;;;16.40;99.90;;;;;;5033503;28;20433;-86
2023/06/03 04:06:37;;;;;;;0.30;0.30;;;16.50;99.90;;;;;;5033560;28;20024;-86
2023/06/03 04:09:04;;;;;;;0.52;0.52;;;16.60;99.90;;;;;;5015720;28;20516;-86
2023/06/03 04:11:43;;;;;;;0.20;0.20;;;16.50;99.90;;;;;;5033562;28;20103;-86
2023/06/03 04:14:14;;;;;;;0.00;0.00;;;16.80;99.90;;;;;;5032908;28;20120;-86
2023/06/03 04:16:42;;;;;;;0.03;0.03;;;16.80;99.90;;;;;;5015192;28;20037;-86
2023/06/03 04:19:16;;;;;;;1.08;0.60;;;16.70;99.90;;;;;;5015481;28;20048;-86
2023/06/03 04:21:41;;;;;;;0.52;0.52;;;16.50;99.90;;;;;;5015337;28;20103;-86
2023/06/03 04:24:08;;;;;;;0.82;0.50;;;16.40;99.90;;;;;;5033272;28;20037;-86
2023/06/03 04:26:34;;;;;;;0.10;0.10;;;16.30;99.90;;;;;;5033101;28;20041;-86
2023/06/03 04:29:00;;;;;;;0.98;0.20;;;16.50;99.90;;;;;;5033318;28;20412;-87
2023/06/03 04:31:26;;;;;;;2.17;0.22;;;16.70;99.90;;;;;;5015006;28;20156;-86
2023/06/03 04:33:51;;;;;;;0.85;0.63;;;16.70;99.90;;;;;;5033228;28;20113;-86
2023/06/03 04:36:17;;;;;;;0.17;0.15;;;16.70;99.90;;;;;;5015202;28;20474;-86
2023/06/03 04:38:43;;;;;;;0.10;0.10;;;16.50;99.90;;;;;;5032964;28;20033;-86
2023/06/03 04:41:14;;;;;;;0.30;0.30;;;16.50;99.90;;;;;;5034124;28;20030;-87
2023/06/03 04:43:40;;;;;;;0.80;0.47;;;16.60;99.90;;;;;;5053136;28;20028;-86
2023/06/03 04:46:07;;;;;;;0.22;0.22;;;16.60;99.90;;;;;;5034498;28;20389;-86
2023/06/03 04:48:33;;;;;;;0.40;0.35;;;16.90;99.90;;;;;;5053082;28;20025;-86
2023/06/03 04:51:01;;;;;;;0.10;0.10;;;16.90;99.90;;;;;;5036903;28;20025;-86
2023/06/03 04:53:28;;;;;;;0.15;0.15;;;16.70;99.90;;;;;;5033022;28;20561;-86
2023/06/03 04:55:53;;;;;;;0.10;0.10;;;16.70;99.90;;;;;;5032929;28;20393;-85
2023/06/03 04:58:19;;;;;;;0.32;0.32;;;16.80;99.90;;;;;;5014869;28;20039;-86
2023/06/03 05:00:48;;;;;;;0.63;0.30;;;16.80;99.90;;;;;;5031887;28;20049;-86
2023/06/03 05:03:16;;;;;;;3.15;0.73;;;16.80;99.90;;;;;;5032795;28;20032;-86
2023/06/03 05:05:43;;;;;;;0.10;0.10;;;16.80;99.90;;;;;;5032694;28;20124;-86
2023/06/03 05:08:12;;;;;;;0.50;0.50;;;16.80;99.90;;;;;;5015498;28;20061;-86
2023/06/03 05:10:38;;;;;;;0.10;0.10;;;17.00;99.90;;;;;;5014879;28;20030;-85
2023/06/03 05:13:08;;;;;;;1.45;0.55;;;17.00;99.90;;;;;;5032430;28;20029;-86
2023/06/03 05:15:35;;;;;;;0.00;0.00;;;17.20;99.90;;;;;;5032341;28;20025;-86
2023/06/03 05:18:01;;;;;;;0.32;0.17;;;17.30;99.90;;;;;;5032908;28;20022;-85
2023/06/03 05:20:27;;;;;;;0.10;0.10;;;17.20;99.90;;;;;;5032683;28;20540;-86
2023/06/03 05:22:53;;;;;;;0.15;0.15;;;17.30;99.90;;;;;;5032451;28;20030;-85
2023/06/03 05:25:18;;;;;;;0.20;0.20;;;17.30;99.90;;;;;;5032414;28;20022;-86
2023/06/03 05:27:44;;;;;;;0.20;0.20;;;17.30;99.90;;;;;;5036532;28;20394;-85
2023/06/03 05:30:10;;;;;;;0.10;0.10;;;17.30;99.90;;;;;;5019258;28;20022;-85
2023/06/03 05:32:36;;;;;;;0.10;0.10;;;17.30;99.90;;;;;;5036367;28;20052;-85
2023/06/03 05:35:02;;;;;;;0.10;0.10;;;17.20;99.90;;;;;;5036545;28;20021;-85
2023/06/03 05:37:27;;;;;;;0.22;0.22;;;17.30;99.90;;;;;;5036402;28;20048;-86
2023/06/03 05:39:53;;;;;;;2.63;0.88;;;17.50;99.90;;;;;;5018185;28;20393;-86
2023/06/03 05:42:19;;;;;;;0.05;0.05;;;17.60;99.90;;;;;;5046592;28;20029;-86
2023/06/03 05:44:45;;;;;;;0.20;0.20;;;17.70;99.90;;;;;;5055443;28;20048;-86
2023/06/03 05:47:10;;;;;;;0.40;0.40;;;17.80;99.90;;;;;;5055962;28;20053;-86
2023/06/03 05:49:36;;;;;;;0.63;0.25;;;17.90;99.90;;;;;;5051684;28;20018;-86
2023/06/03 05:52:02;;;;;;;0.15;0.15;;;18.00;99.90;;;;;;5035914;28;20025;-88
2023/06/03 05:54:28;;;;;;;0.73;0.40;;;18.10;99.90;;;;;;5018759;28;20056;-88
2023/06/03 05:56:56;;;;;;;0.28;0.25;;;18.20;99.90;;;;;;5036672;28;20033;-89
2023/06/03 05:59:22;;;;;;;0.10;0.10;;;18.40;99.90;;;;;;5036196;28;20592;-88
2023/06/03 06:01:48;;;;;;;0.50;0.30;;;18.60;99.90;;;;;;5018648;28;20116;-87
2023/06/03 06:04:13;;;;;;;1.10;0.90;;;18.50;99.90;;;;;;5035804;28;20022;-86
2023/06/03 06:06:39;;;;;;;0.90;0.65;;;18.60;99.90;;;;;;5017919;28;20017;-85
2023/06/03 06:09:05;;;;;;;0.00;0.00;;;18.70;99.90;;;;;;5035505;28;20413;-85
2023/06/03 06:11:30;;;;;;;0.35;0.35;;;18.90;99.90;;;;;;5034949;28;20091;-84
2023/06/03 06:13:56;;;;;;;0.20;0.20;;;19.00;99.90;;;;;;5035120;28;20030;-86
2023/06/03 06:16:21;;;;;;;0.10;0.10;;;18.90;99.90;;;;;;5035957;28;20029;-84
2023/06/03 06:18:48;;;;;;;0.30;0.30;;;19.10;99.90;;;;;;5036758;28;20040;-85
2023/06/03 06:21:15;;;;;;;0.10;0.10;;;19.40;99.90;;;;;;5018829;28;20041;-87
2023/06/03 06:23:43;;;;;;;0.30;0.30;;;19.10;99.90;;;;;;5035197;28;20017;-86
2023/06/03 06:26:09;;;;;;;0.40;0.10;;;19.20;99.90;;;;;;5034745;28;20029;-86
2023/06/03 06:28:34;;;;;;;0.47;0.10;;;19.20;99.90;;;;;;5035623;28;20398;-85
2023/06/03 06:31:04;;;;;;;0.30;0.22;;;19.30;99.90;;;;;;5035148;28;20022;-86
2023/06/03 06:33:33;;;;;;;0.05;0.05;;;19.40;99.90;;;;;;5034971;28;20034;-85
2023/06/03 06:36:03;;;;;;;0.40;0.32;;;19.40;99.90;;;;;;5017653;28;20112;-86
2023/06/03 06:38:29;;;;;;;0.00;0.00;;;19.50;99.90;;;;;;5017242;28;20504;-86
2023/06/03 06:40:55;;;;;;;0.10;0.10;;;19.50;99.90;;;;;;5034467;28;20116;-85
2023/06/03 06:43:25;;;;;;;0.20;0.20;;;19.40;99.90;;;;;;5054701;28;20021;-85
2023/06/03 06:45:54;;;;;;;0.10;0.10;;;19.40;99.90;;;;;;5054762;28;20036;-85
2023/06/03 06:48:20;;;;;;;0.30;0.30;;;19.50;99.90;;;;;;5054691;28;20037;-85
2023/06/03 06:50:49;;;;;;;0.80;0.20;;;19.60;99.90;;;;;;5041260;28;20029;-86
2023/06/03 06:53:16;;;;;;;2.65;0.55;;;19.60;99.90;;;;;;5034741;28;20108;-86
2023/06/03 06:55:54;;;;;;;0.20;0.20;;;19.50;99.90;;;;;;5034063;28;20355;-85
2023/06/03 06:58:20;;;;;;;0.10;0.10;;;19.60;99.90;;;;;;5016778;28;20379;-85
2023/06/03 07:00:47;;;;;;;0.03;0.03;;;19.60;99.90;;;;;;5034564;28;20056;-86
2023/06/03 07:03:14;;;;;;;0.20;0.20;;;19.80;99.90;;;;;;5034749;28;20140;-85
2023/06/03 07:05:41;;;;;;;0.10;0.10;;;19.90;99.90;;;;;;5034338;28;20459;-86
2023/06/03 07:08:06;;;;;;;0.10;0.10;;;19.90;99.90;;;;;;5016979;28;20442;-85
2023/06/03 07:10:32;;;;;;;0.13;0.13;;;20.00;99.90;;;;;;5034114;28;20091;-85
2023/06/03 07:12:58;;;;;;;0.70;0.63;;;19.90;99.90;;;;;;5034467;28;20022;-86
2023/06/03 07:15:24;;;;;;;0.40;0.20;;;19.90;99.90;;;;;;5034361;28;20493;-86
2023/06/03 07:17:54;;;;;;;0.52;0.50;;;20.00;99.90;;;;;;5034545;28;20076;-86
2023/06/03 07:20:22;;;;;;;0.00;0.00;;;20.10;99.90;;;;;;5034666;28;20045;-85
2023/06/03 07:22:48;;;;;;;0.32;0.32;;;19.90;99.90;;;;;;5034126;28;20040;-86
2023/06/03 07:25:42;;;;;;;0.17;0.17;;;20.00;99.90;;;;;;5033717;28;20103;-86
2023/06/03 07:28:16;;;;;;;0.10;0.10;;;20.20;99.90;;;;;;5030973;28;20037;-86
2023/06/03 07:30:43;;;;;;;0.20;0.20;;;20.10;99.90;;;;;;5034302;28;20056;-85
2023/06/03 07:33:30;;;;;;;0.00;0.00;;;20.20;99.90;;;;;;5033960;28;20068;-86
2023/06/03 07:36:01;;;;;;;0.93;0.50;;;20.30;99.90;;;;;;5033034;28;20109;-86
2023/06/03 07:38:42;;;;;;;0.43;0.43;;;20.70;99.90;;;;;;5033493;28;20526;-85
2023/06/03 07:41:09;;;;;;;0.13;0.13;;;20.70;99.90;;;;;;5017082;28;20061;-85
2023/06/03 07:43:36;;;;;;;0.10;0.10;;;20.80;99.90;;;;;;5053738;28;20032;-86
2023/06/03 07:46:06;;;;;;;0.00;0.00;;;20.80;99.90;;;;;;5053832;28;20021;-86
2023/06/03 07:48:41;;;;;;;0.00;0.00;;;21.00;99.90;;;;;;5052677;28;20037;-86
2023/06/03 07:51:08;;;;;;;0.20;0.20;;;21.10;99.90;;;;;;5019142;28;20099;-86
2023/06/03 07:53:37;;;;;;;0.00;0.00;;;21.10;99.90;;;;;;5033189;28;20029;-85
2023/06/03 07:56:10;;;;;;;0.00;0.00;;;21.10;99.90;;;;;;5033329;28;20090;-85
2023/06/03 07:58:37;;;;;;;0.13;0.13;;;21.00;99.90;;;;;;5033137;28;20021;-86
2023/06/03 08:01:03;;;;;;;0.15;0.15;;;21.10;99.90;;;;;;5033691;28;20045;-86
2023/06/03 08:03:31;;;;;;;0.10;0.10;;;21.10;99.90;;;;;;5033283;28;20617;-86
2023/06/03 08:05:57;;;;;;;0.05;0.05;;;21.40;99.90;;;;;;5033314;28;20026;-86
2023/06/03 08:08:33;;;;;;;0.05;0.05;;;21.40;99.90;;;;;;5015107;28;20025;-86
2023/06/03 08:11:00;;;;;;;0.30;0.20;;;21.40;99.90;;;;;;5033138;28;20025;-86
2023/06/03 08:13:26;;;;;;;0.32;0.32;;;21.40;99.90;;;;;;5032676;28;20037;-86
2023/06/03 08:15:52;;;;;;;0.00;0.00;;;21.40;99.90;;;;;;5033539;28;20048;-86
2023/06/03 08:18:43;;;;;;;0.00;0.00;;;21.40;99.90;;;;;;5032836;28;20025;-86
2023/06/03 08:21:09;;;;;;;0.10;0.10;;;21.50;99.90;;;;;;5032786;28;20064;-86
2023/06/03 08:23:36;;;;;;;0.08;0.08;;;21.60;99.90;;;;;;5032480;28;20064;-86
2023/06/03 08:26:03;;;;;;;0.00;0.00;;;21.70;99.90;;;;;;5032759;28;20030;-85
2023/06/03 08:28:29;;;;;;;0.15;0.10;;;22.00;99.90;;;;;;5032837;28;20386;-86
2023/06/03 08:30:55;;;;;;;0.17;0.17;;;22.20;99.90;;;;;;5032841;28;20036;-85
2023/06/03 08:33:22;;;;;;;0.00;0.00;;;22.10;99.90;;;;;;5032661;28;20028;-86
2023/06/03 08:35:48;;;;;;;0.35;0.17;;;22.20;99.90;;;;;;5032470;28;20068;-85
2023/06/03 08:38:17;;;;;;;0.13;0.13;;;22.30;99.90;;;;;;5032172;28;20049;-86
2023/06/03 08:40:48;;;;;;;0.15;0.15;;;22.40;99.90;;;;;;5032641;28;20033;-86
2023/06/03 08:43:14;;;;;;;0.38;0.15;;;22.70;99.90;;;;;;5051534;28;20027;-86
2023/06/03 08:45:55;;;;;;;0.30;0.30;;;22.70;99.90;;;;;;5053063;28;20032;-86
2023/06/03 08:48:37;;;;;;;0.28;0.20;;;22.80;99.90;;;;;;5052501;28;20107;-85
2023/06/03 08:51:04;;;;;;;0.10;0.10;;;22.80;99.90;;;;;;5035772;28;20029;-86
2023/06/03 08:53:51;;;;;;;0.43;0.43;;;22.80;99.90;;;;;;5032181;28;20029;-85
2023/06/03 08:56:20;;;;;;;0.22;0.22;;;22.70;99.90;;;;;;5032139;28;20030;-86
2023/06/03 08:58:52;;;;;;;0.10;0.10;;;22.70;99.90;;;;;;5032454;28;20034;-86
2023/06/03 09:01:21;;;;;;;0.13;0.13;;;22.50;99.90;;;;;;5031308;28;20417;-85
2023/06/03 09:03:48;;;;;;;0.10;0.10;;;22.60;99.90;;;;;;5032266;28;20030;-85
2023/06/03 09:06:14;;;;;;;0.30;0.30;;;22.60;99.90;;;;;;5032039;28;20013;-86
2023/06/03 09:08:40;;;;;;;0.00;0.00;;;22.70;99.90;;;;;;5031916;28;20109;-85
2023/06/03 09:11:10;;;;;;;0.30;0.30;;;22.70;99.90;;;;;;5032047;28;20040;-86
2023/06/03 09:13:36;;;;;;;0.25;0.25;;;22.80;99.90;;;;;;5032208;28;20440;-85
2023/06/03 09:16:02;;;;;;;0.40;0.40;;;22.70;99.90;;;;;;5031900;28;20029;-86
2023/06/03 09:18:29;;;;;;;0.10;0.10;;;22.70;99.90;;;;;;5032244;28;20021;-86
2023/06/03 09:20:55;;;;;;;1.05;0.20;;;22.60;99.90;;;;;;5031587;28;20038;-85
2023/06/03 09:23:21;;;;;;;0.35;0.35;;;22.60;99.90;;;;;;5032048;28;20075;-84
2023/06/03 09:25:47;;;;;;;0.70;0.60;;;22.70;99.90;;;;;;5031924;28;20556;-84
2023/06/03 09:28:13;;;;;;;0.10;0.10;;;22.50;99.90;;;;;;5014150;28;20025;-84
2023/06/03 09:30:39;;;;;;;0.10;0.10;;;22.70;99.90;;;;;;5031880;28;20030;-84
2023/06/03 09:33:05;;;;;;;0.03;0.03;;;22.90;99.90;;;;;;5031986;28;20085;-84
2023/06/03 09:35:31;;;;;;;0.03;0.03;;;22.90;99.90;;;;;;5031827;28;20489;-84
2023/06/03 09:37:59;;;;;;;0.70;0.45;;;23.10;99.90;;;;;;5031780;28;20490;-84
2023/06/03 09:40:27;;;;;;;0.28;0.10;;;22.80;99.90;;;;;;5032224;28;20490;-84
2023/06/03 09:42:53;;;;;;;0.20;0.20;;;22.80;99.90;;;;;;5047701;28;20075;-84
2023/06/03 09:45:36;;;;;;;0.70;0.57;;;22.70;99.90;;;;;;5051637;28;20032;-85
2023/06/03 09:48:02;;;;;;;0.15;0.15;;;22.70;99.90;;;;;;5051686;28;20029;-84
2023/06/03 09:50:31;;;;;;;0.40;0.40;;;22.80;99.90;;;;;;5039787;28;20047;-84
2023/06/03 09:52:58;;;;;;;0.40;0.40;;;23.10;99.90;;;;;;5031804;28;20049;-84
2023/06/03 09:55:34;;;;;;;0.13;0.13;;;23.20;99.90;;;;;;5032113;28;20072;-84
2023/06/03 09:58:09;;;;;;;0.38;0.32;;;23.20;99.90;;;;;;5031828;28;20386;-84
2023/06/03 10:00:50;;;;;;;0.68;0.68;;;23.30;99.90;;;;;;5031430;28;20046;-84
2023/06/03 10:03:19;;;;;;;0.30;0.30;;;23.40;99.90;;;;;;5031057;28;20021;-85
2023/06/03 10:05:45;;;;;;;0.70;0.70;;;23.40;99.90;;;;;;5031405;28;20111;-84
2023/06/03 10:08:11;;;;;;;0.30;0.30;;;23.50;99.90;;;;;;5031597;28;20064;-85
2023/06/03 10:10:55;;;;;;;0.15;0.15;;;23.50;99.90;;;;;;5031641;28;20025;-84
2023/06/03 10:13:21;;;;;;;0.10;0.10;;;23.50;99.90;;;;;;5034408;28;20544;-84
2023/06/03 10:15:49;;;;;;;0.15;0.15;;;23.50;99.90;;;;;;5035153;28;20104;-84
2023/06/03 10:18:14;;;;;;;0.15;0.15;;;23.40;99.90;;;;;;5035175;28;20026;-84
2023/06/03 10:20:41;;;;;;;0.13;0.13;;;23.80;99.90;;;;;;5035432;28;20045;-85
2023/06/03 10:23:09;;;;;;;0.00;0.00;;;23.90;99.90;;;;;;5035107;28;20030;-84
2023/06/03 10:25:42;;;;;;;0.32;0.32;;;24.10;99.90;;;;;;5034796;28;20033;-84
2023/06/03 10:28:11;;;;;;;0.15;0.15;;;24.20;99.90;;;;;;5035285;28;20052;-84
2023/06/03 10:30:39;;;;;;;0.08;0.08;;;24.30;99.90;;;;;;5034706;28;20040;-85
2023/06/03 10:33:08;;;;;;;0.40;0.40;;;24.50;99.90;;;;;;5034618;28;20045;-84
2023/06/03 10:35:36;;;;;;;1.20;0.20;;;24.50;99.90;;;;;;5017571;28;20033;-84
2023/06/03 10:38:06;;;;;;;0.38;0.20;;;24.30;99.90;;;;;;5034738;28;20052;-84
2023/06/03 10:40:33;;;;;;;0.10;0.10;;;24.30;99.90;;;;;;5034560;28;20041;-85
2023/06/03 10:42:59;;;;;;;0.10;0.10;;;24.20;99.90;;;;;;5051589;28;20063;-84
2023/06/03 10:45:26;;;;;;;0.08;0.08;;;24.30;99.90;;;;;;5054465;28;20033;-84
2023/06/03 10:48:11;;;;;;;0.25;0.25;;;24.30;99.90;;;;;;5054418;28;20059;-84
2023/06/03 10:51:20;;;;;;;0.32;0.28;;;24.30;99.90;;;;;;5042038;28;20029;-84
2023/06/03 10:54:18;;;;;;;1.75;1.02;;;24.40;99.90;;;;;;5034115;28;20025;-84
2023/06/03 10:56:53;;;;;;;0.20;0.20;;;24.70;99.90;;;;;;5034332;28;20026;-85
2023/06/03 10:59:23;;;;;;;0.35;0.35;;;24.50;99.90;;;;;;5034364;28;20053;-85
2023/06/03 11:01:59;;;;;;;0.88;0.40;;;24.50;99.90;;;;;;5033908;28;20489;-84
2023/06/03 11:04:26;;;;;;;0.40;0.40;;;24.60;99.90;;;;;;5034457;28;20021;-84
2023/06/03 11:06:53;;;;;;;0.70;0.43;;;24.70;99.90;;;;;;5035116;28;20120;-84
2023/06/03 11:09:31;;;;;;;0.22;0.22;;;25.00;99.90;;;;;;5034206;28;20100;-84
2023/06/03 11:12:09;;;;;;;1.98;0.55;;;25.20;99.90;;;;;;5034295;28;20022;-85
2023/06/03 11:14:42;;;;;;;0.20;0.20;;;25.20;99.90;;;;;;5034013;28;20030;-84
2023/06/03 11:17:12;;;;;;;0.13;0.13;;;25.00;99.90;;;;;;5034106;28;20021;-84
2023/06/03 11:19:38;;;;;;;0.22;0.22;;;25.30;99.90;;;;;;5033965;28;20033;-84
2023/06/03 11:22:07;;;;;;;0.20;0.20;;;25.50;99.90;;;;;;5034192;28;20144;-84
2023/06/03 11:24:39;;;;;;;0.20;0.20;;;25.30;99.90;;;;;;5033105;28;20022;-85
2023/06/03 11:27:10;;;;;;;0.30;0.30;;;25.30;99.90;;;;;;5034819;28;20030;-84
2023/06/03 11:29:51;;;;;;;0.35;0.20;;;25.40;99.90;;;;;;5034062;28;20026;-84
2023/06/03 11:32:21;;;;;;;0.43;0.20;;;25.50;99.90;;;;;;5033602;28;20072;-85
2023/06/03 11:35:07;;;;;;;0.40;0.40;;;25.50;99.90;;;;;;5034066;28;20032;-84
2023/06/03 11:37:48;;;;;;;0.10;0.10;;;25.70;99.90;;;;;;5032941;28;20026;-84
2023/06/03 11:40:17;;;;;;;0.10;0.10;;;25.70;99.90;;;;;;5034155;28;20037;-84
2023/06/03 11:42:51;;;;;;;0.20;0.20;;;26.10;99.90;;;;;;5047929;28;20025;-84
2023/06/03 11:45:17;;;;;;;0.65;0.20;;;26.30;99.90;;;;;;5052951;28;20418;-84
2023/06/03 11:47:59;;;;;;;0.30;0.30;;;26.00;99.90;;;;;;5053813;28;20105;-84
2023/06/03 11:50:26;;;;;;;0.10;0.10;;;26.10;99.90;;;;;;5042210;28;20496;-84
2023/06/03 11:52:52;;;;;;;0.08;0.08;;;26.20;99.90;;;;;;5015493;28;20043;-85
2023/06/03 11:55:29;;;;;;;0.10;0.10;;;26.70;99.90;;;;;;5033617;28;20108;-84
2023/06/03 11:57:56;;;;;;;0.10;0.10;;;26.70;99.90;;;;;;5033023;28;20501;-83
2023/06/03 12:00:22;;;;;;;0.20;0.20;;;27.00;99.90;;;;;;5032434;28;20534;-84
2023/06/03 12:02:48;;;;;;;0.52;0.30;;;26.80;99.90;;;;;;5033402;28;20049;-84
2023/06/03 12:05:15;;;;;;;0.00;0.00;;;26.80;99.90;;;;;;5033316;28;20083;-85
2023/06/03 12:07:43;;;;;;;0.88;0.30;;;26.90;99.90;;;;;;5033126;28;20029;-84
2023/06/03 12:10:11;;;;;;;0.13;0.10;;;26.90;99.90;;;;;;5032954;28;20025;-84
2023/06/03 12:12:49;;;;;;;0.52;0.52;;;26.60;99.90;;;;;;5032931;28;20075;-84
2023/06/03 12:15:15;;;;;;;0.28;0.28;;;26.50;99.90;;;;;;5032366;28;20479;-84
2023/06/03 12:17:41;;;;;;;1.02;0.50;;;26.70;99.90;;;;;;5033040;28;20024;-84
2023/06/03 12:20:07;;;;;;;0.43;0.43;;;26.60;99.90;;;;;;5032901;28;20037;-84
2023/06/03 12:22:33;;;;;;;0.35;0.35;;;26.80;99.90;;;;;;5032671;28;20536;-85
2023/06/03 12:24:58;;;;;;;0.45;0.45;;;27.00;99.90;;;;;;5032997;28;20029;-84
2023/06/03 12:27:26;;;;;;;0.32;0.30;;;27.40;99.90;;;;;;5033017;28;20017;-85
2023/06/03 12:29:56;;;;;;;0.43;0.43;;;27.40;99.90;;;;;;5032384;28;20075;-84
2023/06/03 12:32:25;;;;;;;0.90;0.38;;;27.00;99.90;;;;;;5032789;28;20197;-84
2023/06/03 12:34:51;;;;;;;0.43;0.22;;;27.50;99.90;;;;;;5032962;28;20037;-85
2023/06/03 12:37:29;;;;;;;0.65;0.40;;;27.50;99.90;;;;;;5032518;28;20026;-84
2023/06/03 12:39:57;;;;;;;0.10;0.10;;;27.50;99.90;;;;;;5032164;28;20036;-85
2023/06/03 12:42:42;;;;;;;0.20;0.20;;;27.70;99.90;;;;;;5044415;28;20048;-85
2023/06/03 12:45:09;;;;;;;0.65;0.65;;;28.30;99.90;;;;;;5052010;28;20033;-85
2023/06/03 12:47:44;;;;;;;0.13;0.13;;;28.30;99.90;;;;;;5052719;28;20029;-85
2023/06/03 12:50:10;;;;;;;1.20;0.50;;;28.50;99.90;;;;;;5043339;28;20034;-84
2023/06/03 12:52:38;;;;;;;0.50;0.50;;;28.60;99.90;;;;;;5014673;28;20029;-84
2023/06/03 12:55:09;;;;;;;0.13;0.13;;;29.00;99.90;;;;;;5032321;28;20022;-84